createdAt,value
2022-09-06T00:00:48.101Z,101239.53
2022-09-06T00:03:21.593Z,101237.09
2022-09-06T00:05:52.336Z,101236.25
2022-09-06T00:08:26.033Z,101228.53
2022-09-06T00:11:01.371Z,101221.25
2022-09-06T00:13:37.956Z,101219.19
2022-09-06T00:16:26.226Z,101217.59
2022-09-06T00:19:05.102Z,101221.66
2022-09-06T00:21:36.870Z,101212.31
2022-09-06T00:24:12.878Z,101209.47
2022-09-06T00:26:43.208Z,101202.97
2022-09-06T00:29:18.587Z,101204.59
2022-09-06T00:31:49.223Z,101205.81
2022-09-06T00:34:24.110Z,101199.75
2022-09-06T00:36:55.977Z,101206.63
2022-09-06T00:39:29.101Z,101205.00
2022-09-06T00:41:59.931Z,101204.59
2022-09-06T00:44:30.407Z,101204.59
2022-09-06T00:46:58.991Z,101207.81
2022-09-06T00:49:46.933Z,101207.41
2022-09-06T00:52:23.646Z,101201.31
2022-09-06T00:54:54.057Z,101201.75
2022-09-06T00:57:27.369Z,101201.34
2022-09-06T01:00:00.491Z,101202.59
2022-09-06T01:02:34.534Z,101202.97
2022-09-06T01:05:17.057Z,101203.78
2022-09-06T01:08:10.351Z,101198.50
2022-09-06T01:11:13.062Z,101210.25
2022-09-06T01:14:00.213Z,101210.25
2022-09-06T01:16:45.312Z,101213.41
2022-09-06T01:19:48.435Z,101216.19
2022-09-06T01:22:40.413Z,101210.09
2022-09-06T01:25:43.471Z,101209.28
2022-09-06T01:28:35.679Z,101222.63
2022-09-06T01:31:33.187Z,101223.00
2022-09-06T01:34:42.513Z,101211.63
2022-09-06T01:37:20.376Z,101219.69
2022-09-06T01:39:53.410Z,101227.81
2022-09-06T01:42:31.428Z,101226.50
2022-09-06T01:45:05.651Z,101232.59
2022-09-06T01:47:51.489Z,101217.19
2022-09-06T01:50:46.732Z,101217.56
2022-09-06T01:53:55.643Z,101222.81
2022-09-06T01:56:41.657Z,101221.59
2022-09-06T01:59:31.105Z,101224.06
2022-09-06T02:02:10.835Z,101226.88
2022-09-06T02:04:47.341Z,101220.75
2022-09-06T02:07:28.096Z,101228.47
2022-09-06T02:10:06.616Z,101221.19
2022-09-06T02:12:41.785Z,101219.56
2022-09-06T02:15:29.696Z,101213.91
2022-09-06T02:18:46.864Z,101221.63
2022-09-06T02:21:19.887Z,101217.97
2022-09-06T02:23:58.311Z,101217.97
2022-09-06T02:26:32.785Z,101217.22
2022-09-06T02:29:03.292Z,101219.28
2022-09-06T02:31:46.747Z,101223.84
2022-09-06T02:34:24.829Z,101221.16
2022-09-06T02:36:56.368Z,101216.69
2022-09-06T02:39:26.567Z,101212.63
2022-09-06T02:42:00.178Z,101208.59
2022-09-06T02:44:28.213Z,101201.31
2022-09-06T02:47:03.293Z,101196.88
2022-09-06T02:49:39.173Z,101204.22
2022-09-06T02:52:12.873Z,101207.88
2022-09-06T02:54:48.995Z,101207.09
2022-09-06T02:57:19.151Z,101209.13
2022-09-06T02:59:52.357Z,101214.81
2022-09-06T03:02:26.062Z,101211.56
2022-09-06T03:05:00.182Z,101203.03
2022-09-06T03:07:33.514Z,101199.78
2022-09-06T03:10:02.066Z,101201.81
2022-09-06T03:12:34.776Z,101214.44
2022-09-06T03:15:03.214Z,101210.00
2022-09-06T03:17:39.411Z,101209.56
2022-09-06T03:20:09.716Z,101217.28
2022-09-06T03:22:45.277Z,101220.56
2022-09-06T03:25:12.867Z,101214.06
2022-09-06T03:27:45.293Z,101219.78
2022-09-06T03:30:15.858Z,101207.97
2022-09-06T03:32:46.189Z,101197.81
2022-09-06T03:35:22.350Z,101210.84
2022-09-06T03:37:52.915Z,101198.28
2022-09-06T03:40:29.900Z,101197.44
2022-09-06T03:43:03.553Z,101188.91
2022-09-06T03:45:40.184Z,101188.91
2022-09-06T03:48:10.774Z,101186.47
2022-09-06T03:50:49.297Z,101181.63
2022-09-06T03:53:24.805Z,101179.56
2022-09-06T03:55:58.272Z,101180.38
2022-09-06T03:58:32.658Z,101173.09
2022-09-06T04:01:06.390Z,101174.72
2022-09-06T04:03:41.050Z,101177.56
2022-09-06T04:06:14.027Z,101175.53
2022-09-06T04:08:52.041Z,101180.41
2022-09-06T04:11:22.192Z,101182.84
2022-09-06T04:13:55.300Z,101184.88
2022-09-06T04:16:25.886Z,101193.81
2022-09-06T04:18:59.982Z,101192.56
2022-09-06T04:21:35.841Z,101201.53
2022-09-06T04:24:07.098Z,101186.50
2022-09-06T04:26:34.826Z,101182.88
2022-09-06T04:29:08.293Z,101196.69
2022-09-06T04:31:36.288Z,101191.41
2022-09-06T04:34:08.953Z,101196.66
2022-09-06T04:36:48.350Z,101191.41
2022-09-06T04:39:19.323Z,101187.72
2022-09-06T04:41:52.957Z,101185.31
2022-09-06T04:44:25.830Z,101193.84
2022-09-06T04:47:09.319Z,101199.09
2022-09-06T04:49:40.203Z,101203.16
2022-09-06T04:52:10.501Z,101197.47
2022-09-06T04:54:43.845Z,101193.41
2022-09-06T04:57:14.315Z,101199.09
2022-09-06T04:59:47.448Z,101193.44
2022-09-06T05:02:18.392Z,101201.56
2022-09-06T05:04:53.463Z,101215.78
2022-09-06T05:07:24.167Z,101208.88
2022-09-06T05:09:56.818Z,101208.88
2022-09-06T05:12:29.823Z,101204.78
2022-09-06T05:15:02.718Z,101206.03
2022-09-06T05:17:33.740Z,101206.44
2022-09-06T05:20:07.285Z,101212.53
2022-09-06T05:22:37.581Z,101219.03
2022-09-06T05:25:06.109Z,101217.00
2022-09-06T05:27:38.755Z,101227.97
2022-09-06T05:30:12.602Z,101224.72
2022-09-06T05:32:46.061Z,101219.84
2022-09-06T05:35:19.893Z,101228.78
2022-09-06T05:37:55.080Z,101227.16
2022-09-06T05:40:25.578Z,101231.63
2022-09-06T05:42:56.016Z,101230.78
2022-09-06T05:45:25.707Z,101225.53
2022-09-06T05:47:56.430Z,101220.25
2022-09-06T05:50:29.478Z,101224.31
2022-09-06T05:53:02.983Z,101234.44
2022-09-06T05:55:42.764Z,101225.50
2022-09-06T05:58:14.364Z,101227.94
2022-09-06T06:00:42.311Z,101226.72
2022-09-06T06:03:10.421Z,101230.00
2022-09-06T06:05:40.585Z,101226.31
2022-09-06T06:08:13.555Z,101235.22
2022-09-06T06:10:41.683Z,101230.78
2022-09-06T06:13:20.653Z,101231.19
2022-09-06T06:15:51.562Z,101240.09
2022-09-06T06:18:25.543Z,101245.78
2022-09-06T06:21:08.641Z,101238.88
2022-09-06T06:23:43.593Z,101232.31
2022-09-06T06:26:17.993Z,101231.06
2022-09-06T06:28:56.533Z,101232.72
2022-09-06T06:31:27.339Z,101228.13
2022-09-06T06:34:06.174Z,101230.91
2022-09-06T06:36:39.557Z,101228.34
2022-09-06T06:39:13.253Z,101226.28
2022-09-06T06:41:47.989Z,101231.97
2022-09-06T06:44:34.986Z,101240.88
2022-09-06T06:47:08.488Z,101242.81
2022-09-06T06:49:41.581Z,101242.31
2022-09-06T06:52:13.517Z,101238.63
2022-09-06T06:54:54.591Z,101246.03
2022-09-06T06:57:28.282Z,101234.97
2022-09-06T06:59:59.447Z,101238.03
2022-09-06T07:02:32.033Z,101229.13
2022-09-06T07:07:57.660Z,101240.53
2022-09-06T07:10:36.275Z,101236.25
2022-09-06T07:13:07.961Z,101236.25
2022-09-06T07:15:41.648Z,101236.31
2022-09-06T07:18:16.234Z,101241.72
2022-09-06T07:26:28.562Z,101234.19
2022-09-06T07:29:02.032Z,101242.34
2022-09-06T07:34:28.902Z,101235.91
2022-09-06T07:36:59.458Z,101239.59
2022-09-06T07:39:27.234Z,101243.66
2022-09-06T07:42:02.700Z,101243.25
2022-09-06T07:44:40.619Z,101243.75
2022-09-06T07:55:47.051Z,101235.38
2022-09-06T07:58:15.459Z,101238.28
2022-09-06T08:00:49.853Z,101237.50
2022-09-06T08:03:20.316Z,101241.09
2022-09-06T08:06:11.165Z,101247.84
2022-09-06T08:09:00.353Z,101248.22
2022-09-06T08:11:35.971Z,101240.63
2022-09-06T08:14:11.459Z,101236.75
2022-09-06T08:16:41.813Z,101236.13
2022-09-06T08:19:11.813Z,101241.69
2022-09-06T08:21:39.624Z,101247.44
2022-09-06T08:24:12.597Z,101248.34
2022-09-06T08:26:43.372Z,101250.88
2022-09-06T08:29:16.237Z,101257.91
2022-09-06T08:31:49.178Z,101259.19
2022-09-06T08:34:26.136Z,101259.00
2022-09-06T08:37:04.958Z,101261.78
2022-09-06T08:39:40.668Z,101259.81
2022-09-06T08:42:17.114Z,101257.38
2022-09-06T08:44:58.601Z,101259.78
2022-09-06T08:47:28.755Z,101258.63
2022-09-06T08:50:07.400Z,101257.81
2022-09-06T08:53:18.314Z,101254.59
2022-09-06T08:55:55.593Z,101261.94
2022-09-06T08:58:42.431Z,101256.25
2022-09-06T09:01:27.825Z,101257.06
2022-09-06T09:04:06.100Z,101254.22
2022-09-06T09:06:43.935Z,101244.03
2022-09-06T09:09:16.697Z,101250.56
2022-09-06T09:11:53.770Z,101238.00
2022-09-06T09:14:30.480Z,101244.47
2022-09-06T09:17:09.450Z,101235.09
2022-09-06T09:19:51.471Z,101231.44
2022-09-06T09:22:25.702Z,101226.56
2022-09-06T09:25:07.421Z,101225.72
2022-09-06T09:27:42.706Z,101210.69
2022-09-06T09:33:36.914Z,101207.06
2022-09-06T09:36:25.435Z,101202.19
2022-09-06T09:38:57.306Z,101208.69
2022-09-06T09:41:33.393Z,101201.31
2022-09-06T09:44:12.172Z,101202.50
2022-09-06T09:46:46.645Z,101203.00
2022-09-06T09:49:29.381Z,101202.13
2022-09-06T09:52:11.355Z,101202.91
2022-09-06T09:54:46.921Z,101202.56
2022-09-06T09:57:19.154Z,101201.75
2022-09-06T09:59:51.565Z,101197.34
2022-09-06T10:02:22.273Z,101199.44
2022-09-06T10:04:53.763Z,101190.44
2022-09-06T10:07:30.850Z,101183.06
2022-09-06T10:10:07.727Z,101187.09
2022-09-06T10:12:40.757Z,101186.22
2022-09-06T10:15:11.260Z,101180.13
2022-09-06T10:17:51.564Z,101174.41
2022-09-06T10:20:24.881Z,101171.16
2022-09-06T10:23:07.182Z,101169.94
2022-09-06T10:25:46.352Z,101165.16
2022-09-06T10:28:29.773Z,101163.56
2022-09-06T10:31:19.616Z,101155.50
2022-09-06T10:34:14.979Z,101163.16
2022-09-06T10:37:24.517Z,101149.25
2022-09-06T10:40:10.205Z,101148.88
2022-09-06T10:42:47.134Z,101139.91
2022-09-06T10:45:39.964Z,101143.25
2022-09-06T10:48:36.561Z,101142.78
2022-09-06T10:51:15.038Z,101135.47
2022-09-06T10:54:03.587Z,101132.16
2022-09-06T10:56:49.822Z,101135.00
2022-09-06T10:59:42.916Z,101133.84
2022-09-06T11:02:36.069Z,101131.50
2022-09-06T11:10:58.324Z,101114.34
2022-09-06T11:13:28.295Z,101118.47
2022-09-06T11:16:17.466Z,101100.66
2022-09-06T11:19:11.411Z,101103.59
2022-09-06T11:21:54.308Z,101107.25
2022-09-06T11:24:55.506Z,101100.31
2022-09-06T11:27:40.299Z,101099.53
2022-09-06T11:30:16.029Z,101088.53
2022-09-06T11:32:53.610Z,101095.38
2022-09-06T11:35:34.975Z,101090.56
2022-09-06T11:38:17.103Z,101084.88
2022-09-06T11:40:57.611Z,101094.69
2022-09-06T11:43:48.914Z,101091.06
2022-09-06T11:46:34.841Z,101083.75
2022-09-06T11:49:25.290Z,101078.41
2022-09-06T11:51:58.911Z,101064.16
2022-09-06T11:54:42.620Z,101058.03
2022-09-06T11:57:19.645Z,101061.25
2022-09-06T12:00:00.476Z,101047.50
2022-09-06T12:02:47.692Z,101058.50
2022-09-06T12:05:22.994Z,101049.22
2022-09-06T12:08:34.156Z,101050.47
2022-09-06T12:11:30.075Z,101054.94
2022-09-06T12:14:00.334Z,101051.31
2022-09-06T12:16:55.562Z,101050.47
2022-09-06T12:19:47.749Z,101044.38
2022-09-06T12:22:36.857Z,101035.84
2022-09-06T12:25:42.640Z,101030.16
2022-09-06T12:28:24.490Z,101027.31
2022-09-06T12:30:59.719Z,101024.84
2022-09-06T12:33:33.508Z,101024.81
2022-09-06T12:36:24.399Z,101019.56
2022-09-06T12:38:59.115Z,101019.13
2022-09-06T12:41:55.460Z,101017.13
2022-09-06T12:44:54.182Z,101022.41
2022-09-06T12:47:30.189Z,101010.19
2022-09-06T12:50:32.704Z,101006.94
2022-09-06T12:53:03.646Z,101001.69
2022-09-06T12:55:41.438Z,101005.34
2022-09-06T12:58:15.424Z,100997.59
2022-09-06T13:00:55.163Z,100993.56
2022-09-06T13:03:36.097Z,100984.56
2022-09-06T13:06:09.081Z,100984.16
2022-09-06T13:08:48.342Z,100982.97
2022-09-06T13:11:38.995Z,100982.53
2022-09-06T13:14:19.994Z,100976.03
2022-09-06T13:16:57.489Z,100969.94
2022-09-06T13:19:40.602Z,100966.31
2022-09-06T13:22:13.530Z,100951.63
2022-09-06T13:24:50.052Z,100949.13
2022-09-06T13:27:33.522Z,100950.13
2022-09-06T13:30:10.057Z,100950.47
2022-09-06T13:32:53.230Z,100944.34
2022-09-06T13:35:41.953Z,100928.13
2022-09-06T13:39:04.430Z,100934.63
2022-09-06T13:41:41.365Z,100932.06
2022-09-06T13:44:15.659Z,100925.22
2022-09-06T13:46:56.573Z,100923.25
2022-09-06T13:49:28.386Z,100930.16
2022-09-06T13:52:02.530Z,100929.72
2022-09-06T13:54:31.781Z,100924.41
2022-09-06T13:57:05.904Z,100915.03
2022-09-06T13:59:42.941Z,100906.13
2022-09-06T14:02:19.629Z,100909.88
2022-09-06T14:04:52.594Z,100904.13
2022-09-06T14:07:23.446Z,100893.50
2022-09-06T14:10:06.344Z,100894.31
2022-09-06T14:12:40.093Z,100896.28
2022-09-06T14:15:15.794Z,100889.06
2022-09-06T14:17:49.260Z,100894.31
2022-09-06T14:20:21.807Z,100890.28
2022-09-06T14:22:52.689Z,100886.53
2022-09-06T14:25:21.245Z,100889.03
2022-09-06T14:27:54.668Z,100883.56
2022-09-06T14:30:22.580Z,100884.28
2022-09-06T14:32:56.084Z,100890.50
2022-09-06T14:35:29.025Z,100884.44
2022-09-06T14:38:00.324Z,100882.84
2022-09-06T14:41:05.718Z,100884.44
2022-09-06T14:43:34.011Z,100879.88
2022-09-06T14:46:11.340Z,100884.50
2022-09-06T14:48:42.841Z,100882.31
2022-09-06T14:51:23.460Z,100877.91
2022-09-06T14:53:55.877Z,100878.78
2022-09-06T14:56:30.478Z,100881.16
2022-09-06T14:59:04.420Z,100869.91
2022-09-06T15:01:38.998Z,100873.94
2022-09-06T15:04:13.359Z,100869.69
2022-09-06T15:06:47.356Z,100858.00
2022-09-06T15:09:18.835Z,100854.63
2022-09-06T15:11:53.293Z,100858.19
2022-09-06T15:14:30.131Z,100851.78
2022-09-06T15:17:04.210Z,100842.00
2022-09-06T15:19:36.826Z,100842.78
2022-09-06T15:22:10.246Z,100844.78
2022-09-06T15:24:43.752Z,100852.31
2022-09-06T15:27:19.196Z,100843.31
2022-09-06T15:30:06.363Z,100843.44
2022-09-06T15:32:43.081Z,100836.81
2022-09-06T15:35:21.604Z,100835.09
2022-09-06T15:37:54.267Z,100833.63
2022-09-06T15:40:30.473Z,100840.78
2022-09-06T15:43:01.897Z,100835.97
2022-09-06T15:45:37.745Z,100827.22
2022-09-06T15:48:08.905Z,100828.09
2022-09-06T15:50:51.642Z,100819.22
2022-09-06T15:53:20.611Z,100810.66
2022-09-06T15:55:57.628Z,100820.47
2022-09-06T15:58:27.781Z,100817.28
2022-09-06T16:01:14.900Z,100820.16
2022-09-06T16:03:49.831Z,100818.16
2022-09-06T16:06:27.255Z,100816.59
2022-09-06T16:09:06.225Z,100804.13
2022-09-06T16:11:43.000Z,100808.31
2022-09-06T16:14:18.214Z,100807.41
2022-09-06T16:16:49.904Z,100793.25
2022-09-06T16:19:17.835Z,100806.63
2022-09-06T16:21:50.023Z,100802.22
2022-09-06T16:24:20.506Z,100807.13
2022-09-06T16:26:51.043Z,100801.47
2022-09-06T16:29:22.773Z,100806.38
2022-09-06T16:32:00.001Z,100805.59
2022-09-06T16:34:31.387Z,100795.50
2022-09-06T16:37:07.991Z,100800.75
2022-09-06T16:39:43.259Z,100805.25
2022-09-06T16:42:16.327Z,100809.75
2022-09-06T16:44:49.219Z,100808.94
2022-09-06T16:47:20.045Z,100803.25
2022-09-06T16:49:47.626Z,100803.31
2022-09-06T16:52:16.435Z,100808.56
2022-09-06T16:54:47.074Z,100804.91
2022-09-06T16:57:19.829Z,100806.91
2022-09-06T16:59:52.414Z,100811.34
2022-09-06T17:02:23.035Z,100813.81
2022-09-06T17:04:54.076Z,100813.00
2022-09-06T17:07:24.912Z,100812.69
2022-09-06T17:09:55.422Z,100815.09
2022-09-06T17:12:23.231Z,100819.59
2022-09-06T17:14:56.574Z,100831.09
2022-09-06T17:17:32.656Z,100822.91
2022-09-06T17:20:03.846Z,100824.47
2022-09-06T17:22:33.723Z,100824.38
2022-09-06T17:25:10.710Z,100813.78
2022-09-06T17:27:44.263Z,100811.75
2022-09-06T17:30:15.336Z,100810.09
2022-09-06T17:32:50.629Z,100809.22
2022-09-06T17:35:21.039Z,100810.47
2022-09-06T17:37:52.300Z,100808.44
2022-09-06T17:40:22.884Z,100811.72
2022-09-06T17:42:50.767Z,100809.22
2022-09-06T17:45:24.027Z,100811.66
2022-09-06T17:47:59.801Z,100815.25
2022-09-06T17:50:32.955Z,100807.47
2022-09-06T17:53:03.284Z,100809.91
2022-09-06T17:55:38.669Z,100809.06
2022-09-06T17:58:09.724Z,100816.00
2022-09-06T18:00:43.012Z,100813.97
2022-09-06T18:03:13.187Z,100818.78
2022-09-06T18:05:45.701Z,100820.44
2022-09-06T18:08:14.085Z,100815.16
2022-09-06T18:10:44.585Z,100816.00
2022-09-06T18:13:15.285Z,100809.06
2022-09-06T18:15:50.255Z,100816.38
2022-09-06T18:18:20.927Z,100821.25
2022-09-06T18:20:53.675Z,100823.69
2022-09-06T18:23:26.747Z,100836.28
2022-09-06T18:26:05.770Z,100850.09
2022-09-06T18:28:37.087Z,100849.28
2022-09-06T18:31:09.557Z,100853.31
2022-09-06T18:33:39.709Z,100859.78
2022-09-06T18:36:08.226Z,100850.09
2022-09-06T18:38:36.617Z,100843.59
2022-09-06T18:41:09.066Z,100848.41
2022-09-06T18:43:40.227Z,100851.25
2022-09-06T18:46:13.154Z,100856.59
2022-09-06T18:48:43.641Z,100858.63
2022-09-06T18:51:16.365Z,100866.38
2022-09-06T18:53:48.844Z,100859.78
2022-09-06T18:56:20.599Z,100865.53
2022-09-06T18:58:48.504Z,100868.38
2022-09-06T19:01:21.705Z,100873.25
2022-09-06T19:03:51.813Z,100874.91
2022-09-06T19:06:22.370Z,100865.94
2022-09-06T19:08:57.590Z,100864.31
2022-09-06T19:11:30.815Z,100867.16
2022-09-06T19:14:07.657Z,100859.84
2022-09-06T19:16:38.740Z,100866.38
2022-09-06T19:19:15.684Z,100863.94
2022-09-06T19:21:46.176Z,100870.00
2022-09-06T19:24:22.460Z,100865.94
2022-09-06T19:26:52.823Z,100863.50
2022-09-06T19:29:22.607Z,100878.53
2022-09-06T19:31:55.144Z,100873.66
2022-09-06T19:34:29.188Z,100882.19
2022-09-06T19:37:02.143Z,100875.25
2022-09-06T19:39:37.323Z,100885.41
2022-09-06T19:42:11.551Z,100892.75
2022-09-06T19:44:42.260Z,100888.69
2022-09-06T19:47:12.397Z,100891.97
2022-09-06T19:49:40.406Z,100884.66
2022-09-06T19:52:11.609Z,100884.28
2022-09-06T19:54:43.358Z,100883.03
2022-09-06T19:57:16.069Z,100881.44
2022-09-06T19:59:47.622Z,100877.34
2022-09-06T20:02:18.777Z,100876.53
2022-09-06T20:04:51.369Z,100877.34
2022-09-06T20:07:24.147Z,100880.59
2022-09-06T20:09:54.808Z,100867.63
2022-09-06T20:12:32.458Z,100874.09
2022-09-06T20:15:05.551Z,100871.25
2022-09-06T20:17:39.916Z,100869.66
2022-09-06T20:20:11.421Z,100869.22
2022-09-06T20:22:49.156Z,100873.31
2022-09-06T20:25:17.360Z,100872.91
2022-09-06T20:27:48.116Z,100884.28
2022-09-06T20:30:15.797Z,100876.97
2022-09-06T20:32:49.115Z,100873.31
2022-09-06T20:35:19.531Z,100863.97
2022-09-06T20:37:51.694Z,100863.53
2022-09-06T20:40:31.538Z,100862.38
2022-09-06T20:43:01.624Z,100869.66
2022-09-06T20:45:35.365Z,100860.31
2022-09-06T20:48:08.609Z,100863.16
2022-09-06T20:50:39.181Z,100867.22
2022-09-06T20:53:11.666Z,100864.78
2022-09-06T20:55:44.265Z,100879.81
2022-09-06T20:58:14.605Z,100879.41
2022-09-06T21:00:47.879Z,100883.03
2022-09-06T21:03:17.745Z,100890.38
2022-09-06T21:05:49.137Z,100885.13
2022-09-06T21:08:21.561Z,100885.13
2022-09-06T21:10:59.187Z,100903.00
2022-09-06T21:13:28.536Z,100903.00
2022-09-06T21:16:02.949Z,100901.75
2022-09-06T21:18:35.981Z,100903.81
2022-09-06T21:21:10.337Z,100903.38
2022-09-06T21:23:46.629Z,100908.69
2022-09-06T21:26:18.066Z,100903.81
2022-09-06T21:28:50.641Z,100905.41
2022-09-06T21:31:23.707Z,100905.84
2022-09-06T21:34:01.345Z,100909.09
2022-09-06T21:36:31.201Z,100914.38
2022-09-06T21:39:09.561Z,100908.25
2022-09-06T21:41:43.716Z,100903.81
2022-09-06T21:44:16.216Z,100901.75
2022-09-06T21:46:49.123Z,100900.56
2022-09-06T21:49:20.578Z,100902.56
2022-09-06T21:51:50.884Z,100905.41
2022-09-06T21:54:24.067Z,100902.19
2022-09-06T21:56:54.872Z,100894.03
2022-09-06T21:59:25.194Z,100892.81
2022-09-06T22:01:57.932Z,100896.09
2022-09-06T22:04:34.118Z,100889.19
2022-09-06T22:07:09.279Z,100886.78
2022-09-06T22:09:39.878Z,100886.78
2022-09-06T22:12:10.907Z,100888.38
2022-09-06T22:14:43.515Z,100888.38
2022-09-06T22:17:13.837Z,100893.69
2022-09-06T22:19:49.447Z,100896.09
2022-09-06T22:22:16.916Z,100896.09
2022-09-06T22:24:51.637Z,100881.88
2022-09-06T22:27:19.698Z,100875.81
2022-09-06T22:29:50.391Z,100875.41
2022-09-06T22:32:23.162Z,100877.84
2022-09-06T22:34:56.683Z,100876.25
2022-09-06T22:37:29.102Z,100877.47
2022-09-06T22:39:58.933Z,100877.03
2022-09-06T22:42:31.267Z,100868.09
2022-09-06T22:44:58.818Z,100860.78
2022-09-06T22:47:32.016Z,100862.41
2022-09-06T22:50:05.281Z,100872.97
2022-09-06T22:52:35.531Z,100867.28
2022-09-06T22:55:08.197Z,100860.38
2022-09-06T22:57:42.407Z,100865.66
2022-09-06T23:00:13.774Z,100861.56
2022-09-06T23:02:46.806Z,100866.91
2022-09-06T23:05:21.526Z,100859.16
2022-09-06T23:07:54.212Z,100862.41
2022-09-06T23:10:26.455Z,100872.56
2022-09-06T23:12:57.400Z,100875.41
2022-09-06T23:15:26.346Z,100880.28
2022-09-06T23:17:58.705Z,100875.81
2022-09-06T23:20:27.636Z,100873.78
2022-09-06T23:23:01.358Z,100870.94
2022-09-06T23:25:30.821Z,100868.91
2022-09-06T23:28:00.374Z,100865.25
2022-09-06T23:30:30.648Z,100853.03
2022-09-06T23:33:00.550Z,100852.25
2022-09-06T23:35:32.662Z,100847.78
2022-09-06T23:38:00.222Z,100857.13
2022-09-06T23:40:33.372Z,100851.03
2022-09-06T23:43:05.944Z,100848.19
2022-09-06T23:45:40.868Z,100853.88
2022-09-06T23:48:16.679Z,100849.41
2022-09-06T23:50:45.601Z,100852.25
2022-09-06T23:53:15.203Z,100852.63
2022-09-06T23:55:45.391Z,100855.03
2022-09-06T23:58:17.685Z,100860.38
